sensor_id;sensor_type;location;lat;lon;timestamp;P1;durP1;ratioP1;P2;durP2;ratioP2
12663;SDS011;6396;58.490;15.528;2023-02-21T00:01:49;9.37;;;2.47;;
12663;SDS011;6396;58.490;15.528;2023-02-21T00:05:21;12.27;;;3.00;;
12663;SDS011;6396;58.490;15.528;2023-02-21T00:43:06;7.27;;;2.50;;
12663;SDS011;6396;58.490;15.528;2023-02-21T00:45:50;12.07;;;3.13;;
12663;SDS011;6396;58.490;15.528;2023-02-21T00:48:35;5.87;;;2.50;;
12663;SDS011;6396;58.490;15.528;2023-02-21T00:51:19;12.80;;;2.70;;
12663;SDS011;6396;58.490;15.528;2023-02-21T00:54:04;10.03;;;2.83;;
12663;SDS011;6396;58.490;15.528;2023-02-21T00:56:50;8.90;;;2.57;;
12663;SDS011;6396;58.490;15.528;2023-02-21T00:59:34;10.40;;;3.20;;
12663;SDS011;6396;58.490;15.528;2023-02-21T01:02:31;11.17;;;2.77;;
12663;SDS011;6396;58.490;15.528;2023-02-21T01:05:44;4.93;;;2.40;;
12663;SDS011;6396;58.490;15.528;2023-02-21T01:08:30;11.03;;;2.23;;
12663;SDS011;6396;58.490;15.528;2023-02-21T01:11:20;7.20;;;2.27;;
12663;SDS011;6396;58.490;15.528;2023-02-21T01:17:11;7.77;;;2.43;;
12663;SDS011;6396;58.490;15.528;2023-02-21T01:19:59;6.13;;;2.00;;
12663;SDS011;6396;58.490;15.528;2023-02-21T01:22:45;7.90;;;2.23;;
12663;SDS011;6396;58.490;15.528;2023-02-21T01:25:30;6.77;;;2.10;;
12663;SDS011;6396;58.490;15.528;2023-02-21T01:28:14;10.03;;;2.40;;
12663;SDS011;6396;58.490;15.528;2023-02-21T01:31:02;8.27;;;2.10;;
12663;SDS011;6396;58.490;15.528;2023-02-21T01:33:47;8.43;;;2.30;;
12663;SDS011;6396;58.490;15.528;2023-02-21T01:36:31;5.23;;;1.87;;
12663;SDS011;6396;58.490;15.528;2023-02-21T01:39:16;5.97;;;2.37;;
12663;SDS011;6396;58.490;15.528;2023-02-21T01:42:00;5.70;;;2.10;;
12663;SDS011;6396;58.490;15.528;2023-02-21T01:44:47;6.00;;;1.70;;
12663;SDS011;6396;58.490;15.528;2023-02-21T01:47:50;7.30;;;2.00;;
12663;SDS011;6396;58.490;15.528;2023-02-21T01:50:34;9.93;;;2.67;;
12663;SDS011;6396;58.490;15.528;2023-02-21T01:53:20;5.80;;;2.00;;
12663;SDS011;6396;58.490;15.528;2023-02-21T01:56:07;7.73;;;2.27;;
12663;SDS011;6396;58.490;15.528;2023-02-21T01:58:53;7.37;;;1.93;;
12663;SDS011;6396;58.490;15.528;2023-02-21T02:01:42;6.10;;;2.10;;
12663;SDS011;6396;58.490;15.528;2023-02-21T02:04:34;6.77;;;2.27;;
12663;SDS011;6396;58.490;15.528;2023-02-21T02:07:19;5.43;;;1.90;;
12663;SDS011;6396;58.490;15.528;2023-02-21T02:10:03;6.87;;;2.07;;
12663;SDS011;6396;58.490;15.528;2023-02-21T02:13:04;9.83;;;1.90;;
12663;SDS011;6396;58.490;15.528;2023-02-21T02:32:59;9.17;;;2.47;;
12663;SDS011;6396;58.490;15.528;2023-02-21T02:35:55;7.90;;;2.43;;
12663;SDS011;6396;58.490;15.528;2023-02-21T02:38:29;10.23;;;2.80;;
12663;SDS011;6396;58.490;15.528;2023-02-21T02:41:05;9.83;;;2.10;;
12663;SDS011;6396;58.490;15.528;2023-02-21T02:43:40;6.67;;;2.07;;
12663;SDS011;6396;58.490;15.528;2023-02-21T02:46:14;6.80;;;2.13;;
12663;SDS011;6396;58.490;15.528;2023-02-21T02:48:45;6.23;;;2.20;;
12663;SDS011;6396;58.490;15.528;2023-02-21T02:51:18;6.73;;;2.17;;
12663;SDS011;6396;58.490;15.528;2023-02-21T02:53:46;4.20;;;1.70;;
12663;SDS011;6396;58.490;15.528;2023-02-21T02:56:13;6.80;;;1.80;;
12663;SDS011;6396;58.490;15.528;2023-02-21T02:58:43;9.10;;;2.27;;
12663;SDS011;6396;58.490;15.528;2023-02-21T03:01:18;5.97;;;1.93;;
12663;SDS011;6396;58.490;15.528;2023-02-21T03:04:05;8.20;;;2.47;;
12663;SDS011;6396;58.490;15.528;2023-02-21T03:06:44;6.63;;;1.97;;
12663;SDS011;6396;58.490;15.528;2023-02-21T03:09:23;8.60;;;2.27;;
12663;SDS011;6396;58.490;15.528;2023-02-21T03:12:13;6.40;;;1.97;;
12663;SDS011;6396;58.490;15.528;2023-02-21T03:14:49;8.10;;;2.27;;
12663;SDS011;6396;58.490;15.528;2023-02-21T03:17:25;6.10;;;1.90;;
12663;SDS011;6396;58.490;15.528;2023-02-21T03:19:53;7.10;;;1.87;;
12663;SDS011;6396;58.490;15.528;2023-02-21T03:22:25;5.47;;;1.87;;
12663;SDS011;6396;58.490;15.528;2023-02-21T03:24:55;5.00;;;1.53;;
12663;SDS011;6396;58.490;15.528;2023-02-21T03:27:23;3.80;;;1.57;;
12663;SDS011;6396;58.490;15.528;2023-02-21T03:29:52;4.93;;;1.63;;
12663;SDS011;6396;58.490;15.528;2023-02-21T03:32:23;4.20;;;1.53;;
12663;SDS011;6396;58.490;15.528;2023-02-21T03:34:54;4.30;;;1.53;;
12663;SDS011;6396;58.490;15.528;2023-02-21T03:37:21;6.93;;;1.70;;
12663;SDS011;6396;58.490;15.528;2023-02-21T03:39:58;8.03;;;1.63;;
12663;SDS011;6396;58.490;15.528;2023-02-21T03:42:25;3.77;;;1.50;;
12663;SDS011;6396;58.490;15.528;2023-02-21T03:44:52;6.30;;;1.50;;
12663;SDS011;6396;58.490;15.528;2023-02-21T03:47:19;6.40;;;1.77;;
12663;SDS011;6396;58.490;15.528;2023-02-21T03:49:45;5.57;;;1.80;;
12663;SDS011;6396;58.490;15.528;2023-02-21T03:52:13;4.93;;;1.70;;
12663;SDS011;6396;58.490;15.528;2023-02-21T03:54:42;4.07;;;1.30;;
12663;SDS011;6396;58.490;15.528;2023-02-21T03:57:09;6.27;;;1.33;;
12663;SDS011;6396;58.490;15.528;2023-02-21T03:59:36;4.80;;;1.47;;
12663;SDS011;6396;58.490;15.528;2023-02-21T04:02:03;4.70;;;1.43;;
12663;SDS011;6396;58.490;15.528;2023-02-21T04:04:30;4.00;;;1.70;;
12663;SDS011;6396;58.490;15.528;2023-02-21T04:06:57;4.00;;;1.50;;
12663;SDS011;6396;58.490;15.528;2023-02-21T04:09:25;4.07;;;1.37;;
12663;SDS011;6396;58.490;15.528;2023-02-21T04:15:13;5.17;;;1.60;;
12663;SDS011;6396;58.490;15.528;2023-02-21T04:17:40;3.30;;;1.50;;
12663;SDS011;6396;58.490;15.528;2023-02-21T04:20:08;2.80;;;1.00;;
12663;SDS011;6396;58.490;15.528;2023-02-21T04:22:35;4.77;;;1.30;;
12663;SDS011;6396;58.490;15.528;2023-02-21T04:25:04;5.60;;;1.70;;
12663;SDS011;6396;58.490;15.528;2023-02-21T04:27:32;5.17;;;1.10;;
12663;SDS011;6396;58.490;15.528;2023-02-21T04:40:21;2.90;;;1.30;;
12663;SDS011;6396;58.490;15.528;2023-02-21T04:42:57;5.33;;;1.40;;
12663;SDS011;6396;58.490;15.528;2023-02-21T04:45:43;4.93;;;1.47;;
12663;SDS011;6396;58.490;15.528;2023-02-21T04:48:13;4.50;;;1.20;;
12663;SDS011;6396;58.490;15.528;2023-02-21T04:50:50;2.83;;;1.20;;
12663;SDS011;6396;58.490;15.528;2023-02-21T04:53:18;2.90;;;1.40;;
12663;SDS011;6396;58.490;15.528;2023-02-21T04:55:47;2.93;;;1.60;;
12663;SDS011;6396;58.490;15.528;2023-02-21T04:58:19;4.50;;;1.13;;
12663;SDS011;6396;58.490;15.528;2023-02-21T05:00:46;3.87;;;1.27;;
12663;SDS011;6396;58.490;15.528;2023-02-21T05:03:13;2.90;;;1.37;;
12663;SDS011;6396;58.490;15.528;2023-02-21T05:05:42;3.60;;;1.30;;
12663;SDS011;6396;58.490;15.528;2023-02-21T05:08:09;3.83;;;1.40;;
12663;SDS011;6396;58.490;15.528;2023-02-21T05:10:36;3.87;;;1.20;;
12663;SDS011;6396;58.490;15.528;2023-02-21T05:13:05;6.77;;;1.63;;
12663;SDS011;6396;58.490;15.528;2023-02-21T05:15:32;2.73;;;1.10;;
12663;SDS011;6396;58.490;15.528;2023-02-21T05:17:59;4.03;;;1.57;;
12663;SDS011;6396;58.490;15.528;2023-02-21T05:20:25;4.07;;;1.23;;
12663;SDS011;6396;58.490;15.528;2023-02-21T05:22:53;3.03;;;1.20;;
12663;SDS011;6396;58.490;15.528;2023-02-21T05:25:34;1.83;;;1.00;;
12663;SDS011;6396;58.490;15.528;2023-02-21T05:28:21;2.80;;;1.37;;
12663;SDS011;6396;58.490;15.528;2023-02-21T05:30:48;2.93;;;1.43;;
12663;SDS011;6396;58.490;15.528;2023-02-21T05:33:15;2.30;;;1.30;;
12663;SDS011;6396;58.490;15.528;2023-02-21T05:35:42;7.33;;;1.50;;
12663;SDS011;6396;58.490;15.528;2023-02-21T05:38:11;3.53;;;1.33;;
12663;SDS011;6396;58.490;15.528;2023-02-21T05:40:37;8.10;;;1.37;;
12663;SDS011;6396;58.490;15.528;2023-02-21T05:43:04;5.53;;;1.20;;
12663;SDS011;6396;58.490;15.528;2023-02-21T05:45:32;4.27;;;1.43;;
12663;SDS011;6396;58.490;15.528;2023-02-21T05:47:59;4.93;;;1.20;;
12663;SDS011;6396;58.490;15.528;2023-02-21T05:50:27;3.93;;;1.30;;
12663;SDS011;6396;58.490;15.528;2023-02-21T05:52:54;3.00;;;1.30;;
12663;SDS011;6396;58.490;15.528;2023-02-21T05:55:27;2.80;;;1.10;;
12663;SDS011;6396;58.490;15.528;2023-02-21T05:58:03;4.03;;;1.20;;
12663;SDS011;6396;58.490;15.528;2023-02-21T06:00:30;1.10;;;1.03;;
12663;SDS011;6396;58.490;15.528;2023-02-21T06:02:59;3.10;;;1.30;;
12663;SDS011;6396;58.490;15.528;2023-02-21T06:05:26;3.47;;;1.30;;
12663;SDS011;6396;58.490;15.528;2023-02-21T06:07:53;4.87;;;1.67;;
12663;SDS011;6396;58.490;15.528;2023-02-21T06:10:20;3.87;;;1.27;;
12663;SDS011;6396;58.490;15.528;2023-02-21T06:18:50;2.17;;;1.10;;
12663;SDS011;6396;58.490;15.528;2023-02-21T06:21:24;1.67;;;1.07;;
12663;SDS011;6396;58.490;15.528;2023-02-21T06:23:51;1.77;;;1.20;;
12663;SDS011;6396;58.490;15.528;2023-02-21T06:26:20;3.50;;;1.43;;
12663;SDS011;6396;58.490;15.528;2023-02-21T06:28:47;1.97;;;1.23;;
12663;SDS011;6396;58.490;15.528;2023-02-21T06:31:15;2.57;;;1.30;;
12663;SDS011;6396;58.490;15.528;2023-02-21T06:33:44;4.10;;;1.10;;
12663;SDS011;6396;58.490;15.528;2023-02-21T06:36:12;4.27;;;1.30;;
12663;SDS011;6396;58.490;15.528;2023-02-21T06:38:42;2.33;;;1.10;;
12663;SDS011;6396;58.490;15.528;2023-02-21T06:41:10;2.20;;;1.10;;
12663;SDS011;6396;58.490;15.528;2023-02-21T06:43:37;2.37;;;1.63;;
12663;SDS011;6396;58.490;15.528;2023-02-21T06:46:04;4.80;;;1.40;;
12663;SDS011;6396;58.490;15.528;2023-02-21T06:48:32;1.87;;;1.20;;
12663;SDS011;6396;58.490;15.528;2023-02-21T06:50:59;1.63;;;0.90;;
12663;SDS011;6396;58.490;15.528;2023-02-21T06:53:28;3.77;;;1.13;;
12663;SDS011;6396;58.490;15.528;2023-02-21T06:56:19;1.40;;;1.00;;
12663;SDS011;6396;58.490;15.528;2023-02-21T06:58:57;2.47;;;1.17;;
12663;SDS011;6396;58.490;15.528;2023-02-21T07:01:41;3.30;;;1.23;;
12663;SDS011;6396;58.490;15.528;2023-02-21T07:04:23;1.33;;;1.10;;
12663;SDS011;6396;58.490;15.528;2023-02-21T07:21:01;2.80;;;1.00;;
12663;SDS011;6396;58.490;15.528;2023-02-21T07:23:28;2.37;;;1.10;;
12663;SDS011;6396;58.490;15.528;2023-02-21T07:25:55;1.20;;;0.90;;
12663;SDS011;6396;58.490;15.528;2023-02-21T07:28:22;0.70;;;0.70;;
12663;SDS011;6396;58.490;15.528;2023-02-21T07:43:28;2.60;;;1.00;;
12663;SDS011;6396;58.490;15.528;2023-02-21T07:49:11;1.33;;;0.90;;
12663;SDS011;6396;58.490;15.528;2023-02-21T07:51:39;2.80;;;1.10;;
12663;SDS011;6396;58.490;15.528;2023-02-21T07:54:06;1.60;;;0.93;;
12663;SDS011;6396;58.490;15.528;2023-02-21T07:56:38;0.70;;;0.70;;
12663;SDS011;6396;58.490;15.528;2023-02-21T07:59:11;1.70;;;0.87;;
12663;SDS011;6396;58.490;15.528;2023-02-21T08:01:38;0.80;;;0.80;;
12663;SDS011;6396;58.490;15.528;2023-02-21T08:04:05;1.03;;;0.80;;
12663;SDS011;6396;58.490;15.528;2023-02-21T08:06:32;0.97;;;0.77;;
12663;SDS011;6396;58.490;15.528;2023-02-21T08:09:00;1.27;;;1.17;;
12663;SDS011;6396;58.490;15.528;2023-02-21T08:11:36;1.63;;;0.90;;
12663;SDS011;6396;58.490;15.528;2023-02-21T08:14:18;2.10;;;0.90;;
12663;SDS011;6396;58.490;15.528;2023-02-21T08:16:48;1.00;;;0.90;;
12663;SDS011;6396;58.490;15.528;2023-02-21T08:19:22;1.90;;;0.73;;
12663;SDS011;6396;58.490;15.528;2023-02-21T08:21:49;0.63;;;0.63;;
12663;SDS011;6396;58.490;15.528;2023-02-21T08:24:16;1.07;;;0.90;;
12663;SDS011;6396;58.490;15.528;2023-02-21T08:26:44;1.10;;;0.80;;
12663;SDS011;6396;58.490;15.528;2023-02-21T08:29:11;1.33;;;0.80;;
12663;SDS011;6396;58.490;15.528;2023-02-21T08:31:41;0.80;;;0.80;;
12663;SDS011;6396;58.490;15.528;2023-02-21T08:34:10;0.70;;;0.70;;
12663;SDS011;6396;58.490;15.528;2023-02-21T08:36:39;1.23;;;0.77;;
12663;SDS011;6396;58.490;15.528;2023-02-21T08:39:07;1.33;;;0.90;;
12663;SDS011;6396;58.490;15.528;2023-02-21T08:41:36;1.30;;;0.70;;
12663;SDS011;6396;58.490;15.528;2023-02-21T08:44:03;1.53;;;0.90;;
12663;SDS011;6396;58.490;15.528;2023-02-21T08:46:31;1.23;;;0.83;;
12663;SDS011;6396;58.490;15.528;2023-02-21T08:48:59;0.80;;;0.77;;
12663;SDS011;6396;58.490;15.528;2023-02-21T08:51:26;1.13;;;0.87;;
12663;SDS011;6396;58.490;15.528;2023-02-21T08:53:54;1.20;;;0.90;;
12663;SDS011;6396;58.490;15.528;2023-02-21T08:56:22;3.53;;;1.00;;
12663;SDS011;6396;58.490;15.528;2023-02-21T08:58:50;0.80;;;0.80;;
12663;SDS011;6396;58.490;15.528;2023-02-21T09:01:18;2.20;;;0.90;;
12663;SDS011;6396;58.490;15.528;2023-02-21T09:03:44;1.17;;;0.70;;
12663;SDS011;6396;58.490;15.528;2023-02-21T09:06:13;2.50;;;0.80;;
12663;SDS011;6396;58.490;15.528;2023-02-21T09:08:40;1.00;;;0.80;;
12663;SDS011;6396;58.490;15.528;2023-02-21T09:11:07;0.87;;;0.70;;
12663;SDS011;6396;58.490;15.528;2023-02-21T09:13:34;1.20;;;0.80;;
12663;SDS011;6396;58.490;15.528;2023-02-21T09:16:01;0.77;;;0.77;;
12663;SDS011;6396;58.490;15.528;2023-02-21T09:18:29;0.73;;;0.73;;
12663;SDS011;6396;58.490;15.528;2023-02-21T09:20:57;1.10;;;1.00;;
12663;SDS011;6396;58.490;15.528;2023-02-21T09:23:26;1.63;;;0.80;;
12663;SDS011;6396;58.490;15.528;2023-02-21T09:25:54;1.87;;;0.90;;
12663;SDS011;6396;58.490;15.528;2023-02-21T09:28:21;2.07;;;1.00;;
12663;SDS011;6396;58.490;15.528;2023-02-21T09:30:48;1.67;;;1.10;;
12663;SDS011;6396;58.490;15.528;2023-02-21T09:33:20;1.40;;;0.90;;
12663;SDS011;6396;58.490;15.528;2023-02-21T09:35:47;0.90;;;0.80;;
12663;SDS011;6396;58.490;15.528;2023-02-21T09:38:25;1.30;;;1.00;;
12663;SDS011;6396;58.490;15.528;2023-02-21T09:44:01;0.80;;;0.80;;
12663;SDS011;6396;58.490;15.528;2023-02-21T09:46:43;1.57;;;0.90;;
12663;SDS011;6396;58.490;15.528;2023-02-21T09:49:16;1.00;;;0.90;;
12663;SDS011;6396;58.490;15.528;2023-02-21T09:51:57;1.43;;;0.80;;
12663;SDS011;6396;58.490;15.528;2023-02-21T09:54:32;0.90;;;0.80;;
12663;SDS011;6396;58.490;15.528;2023-02-21T09:57:22;0.60;;;0.60;;
12663;SDS011;6396;58.490;15.528;2023-02-21T09:59:52;2.47;;;1.03;;
12663;SDS011;6396;58.490;15.528;2023-02-21T10:02:25;1.90;;;0.97;;
12663;SDS011;6396;58.490;15.528;2023-02-21T10:05:20;2.13;;;1.10;;
12663;SDS011;6396;58.490;15.528;2023-02-21T10:07:58;12.17;;;1.00;;
12663;SDS011;6396;58.490;15.528;2023-02-21T10:10:31;0.97;;;0.80;;
12663;SDS011;6396;58.490;15.528;2023-02-21T10:13:12;1.40;;;0.83;;
12663;SDS011;6396;58.490;15.528;2023-02-21T10:15:52;0.90;;;0.90;;
12663;SDS011;6396;58.490;15.528;2023-02-21T10:18:26;1.00;;;0.73;;
12663;SDS011;6396;58.490;15.528;2023-02-21T10:21:01;0.70;;;0.70;;
12663;SDS011;6396;58.490;15.528;2023-02-21T10:23:38;1.33;;;0.93;;
12663;SDS011;6396;58.490;15.528;2023-02-21T10:26:12;1.00;;;0.90;;
12663;SDS011;6396;58.490;15.528;2023-02-21T10:28:43;1.47;;;0.90;;
12663;SDS011;6396;58.490;15.528;2023-02-21T10:31:10;0.97;;;0.70;;
12663;SDS011;6396;58.490;15.528;2023-02-21T10:33:42;1.23;;;0.90;;
12663;SDS011;6396;58.490;15.528;2023-02-21T10:36:10;1.10;;;1.00;;
12663;SDS011;6396;58.490;15.528;2023-02-21T10:38:52;0.93;;;0.80;;
12663;SDS011;6396;58.490;15.528;2023-02-21T10:41:23;1.47;;;1.37;;
12663;SDS011;6396;58.490;15.528;2023-02-21T10:43:57;0.90;;;0.90;;
12663;SDS011;6396;58.490;15.528;2023-02-21T10:46:27;0.93;;;0.73;;
12663;SDS011;6396;58.490;15.528;2023-02-21T10:49:08;1.17;;;0.87;;
12663;SDS011;6396;58.490;15.528;2023-02-21T10:51:45;1.13;;;1.00;;
12663;SDS011;6396;58.490;15.528;2023-02-21T10:54:16;0.70;;;0.70;;
12663;SDS011;6396;58.490;15.528;2023-02-21T10:56:46;0.97;;;0.83;;
12663;SDS011;6396;58.490;15.528;2023-02-21T10:59:20;1.80;;;1.00;;
12663;SDS011;6396;58.490;15.528;2023-02-21T11:02:02;1.30;;;1.20;;
12663;SDS011;6396;58.490;15.528;2023-02-21T11:04:50;2.13;;;1.00;;
12663;SDS011;6396;58.490;15.528;2023-02-21T11:07:21;3.47;;;1.37;;
12663;SDS011;6396;58.490;15.528;2023-02-21T11:09:49;0.83;;;0.83;;
12663;SDS011;6396;58.490;15.528;2023-02-21T11:12:20;1.27;;;1.17;;
12663;SDS011;6396;58.490;15.528;2023-02-21T11:15:04;1.30;;;1.20;;
12663;SDS011;6396;58.490;15.528;2023-02-21T11:17:41;1.27;;;1.17;;
12663;SDS011;6396;58.490;15.528;2023-02-21T11:20:15;1.17;;;1.10;;
12663;SDS011;6396;58.490;15.528;2023-02-21T11:22:48;1.37;;;1.27;;
12663;SDS011;6396;58.490;15.528;2023-02-21T11:25:19;1.50;;;1.40;;
12663;SDS011;6396;58.490;15.528;2023-02-21T11:28:00;1.50;;;1.10;;
12663;SDS011;6396;58.490;15.528;2023-02-21T11:30:47;1.80;;;1.00;;
12663;SDS011;6396;58.490;15.528;2023-02-21T11:33:17;1.20;;;1.10;;
12663;SDS011;6396;58.490;15.528;2023-02-21T11:35:47;1.30;;;1.20;;
12663;SDS011;6396;58.490;15.528;2023-02-21T11:38:32;1.27;;;1.10;;
12663;SDS011;6396;58.490;15.528;2023-02-21T11:41:26;1.40;;;1.10;;
12663;SDS011;6396;58.490;15.528;2023-02-21T11:43:55;1.33;;;1.23;;
12663;SDS011;6396;58.490;15.528;2023-02-21T11:49:14;2.77;;;1.47;;
12663;SDS011;6396;58.490;15.528;2023-02-21T11:51:46;1.80;;;1.43;;
12663;SDS011;6396;58.490;15.528;2023-02-21T11:54:35;1.80;;;1.40;;
12663;SDS011;6396;58.490;15.528;2023-02-21T11:57:06;1.70;;;1.60;;
12663;SDS011;6396;58.490;15.528;2023-02-21T11:59:43;1.60;;;1.50;;
12663;SDS011;6396;58.490;15.528;2023-02-21T12:02:21;1.70;;;1.60;;
12663;SDS011;6396;58.490;15.528;2023-02-21T12:05:13;1.50;;;1.40;;
12663;SDS011;6396;58.490;15.528;2023-02-21T12:08:13;2.20;;;1.67;;
12663;SDS011;6396;58.490;15.528;2023-02-21T12:11:04;1.63;;;1.53;;
12663;SDS011;6396;58.490;15.528;2023-02-21T12:13:40;2.00;;;1.80;;
12663;SDS011;6396;58.490;15.528;2023-02-21T12:16:17;1.60;;;1.50;;
12663;SDS011;6396;58.490;15.528;2023-02-21T12:18:59;2.23;;;1.80;;
12663;SDS011;6396;58.490;15.528;2023-02-21T12:21:50;2.17;;;1.47;;
12663;SDS011;6396;58.490;15.528;2023-02-21T12:24:34;2.10;;;1.90;;
12663;SDS011;6396;58.490;15.528;2023-02-21T12:27:15;1.87;;;1.77;;
12663;SDS011;6396;58.490;15.528;2023-02-21T12:30:15;3.43;;;1.90;;
12663;SDS011;6396;58.490;15.528;2023-02-21T12:32:54;2.10;;;1.77;;
12663;SDS011;6396;58.490;15.528;2023-02-21T12:38:41;1.97;;;1.73;;
12663;SDS011;6396;58.490;15.528;2023-02-21T12:42:04;2.50;;;1.70;;
12663;SDS011;6396;58.490;15.528;2023-02-21T12:45:15;3.93;;;2.37;;
12663;SDS011;6396;58.490;15.528;2023-02-21T12:47:57;2.30;;;1.90;;
12663;SDS011;6396;58.490;15.528;2023-02-21T12:50:28;2.20;;;2.00;;
12663;SDS011;6396;58.490;15.528;2023-02-21T12:52:59;2.07;;;1.87;;
12663;SDS011;6396;58.490;15.528;2023-02-21T12:55:30;2.20;;;2.00;;
12663;SDS011;6396;58.490;15.528;2023-02-21T12:58:00;5.93;;;2.30;;
12663;SDS011;6396;58.490;15.528;2023-02-21T13:00:37;2.37;;;2.00;;
12663;SDS011;6396;58.490;15.528;2023-02-21T13:06:04;2.10;;;1.70;;
12663;SDS011;6396;58.490;15.528;2023-02-21T13:08:39;1.57;;;1.47;;
12663;SDS011;6396;58.490;15.528;2023-02-21T13:11:15;3.83;;;2.27;;
12663;SDS011;6396;58.490;15.528;2023-02-21T13:13:47;3.27;;;2.17;;
12663;SDS011;6396;58.490;15.528;2023-02-21T13:16:14;2.13;;;1.90;;
12663;SDS011;6396;58.490;15.528;2023-02-21T13:18:43;2.97;;;2.27;;
12663;SDS011;6396;58.490;15.528;2023-02-21T13:21:16;1.97;;;1.80;;
12663;SDS011;6396;58.490;15.528;2023-02-21T13:24:11;2.50;;;1.80;;
12663;SDS011;6396;58.490;15.528;2023-02-21T13:26:45;2.40;;;2.17;;
12663;SDS011;6396;58.490;15.528;2023-02-21T13:29:27;2.97;;;1.93;;
12663;SDS011;6396;58.490;15.528;2023-02-21T13:31:58;2.30;;;2.00;;
12663;SDS011;6396;58.490;15.528;2023-02-21T13:34:27;2.30;;;2.10;;
12663;SDS011;6396;58.490;15.528;2023-02-21T13:36:59;2.23;;;2.00;;
12663;SDS011;6396;58.490;15.528;2023-02-21T13:39:30;2.50;;;2.30;;
12663;SDS011;6396;58.490;15.528;2023-02-21T13:42:03;2.20;;;2.00;;
12663;SDS011;6396;58.490;15.528;2023-02-21T13:44:37;3.60;;;1.93;;
12663;SDS011;6396;58.490;15.528;2023-02-21T13:47:11;2.37;;;2.00;;
12663;SDS011;6396;58.490;15.528;2023-02-21T13:49:44;2.30;;;2.10;;
12663;SDS011;6396;58.490;15.528;2023-02-21T13:52:26;2.37;;;1.93;;
12663;SDS011;6396;58.490;15.528;2023-02-21T13:55:28;3.53;;;2.10;;
12663;SDS011;6396;58.490;15.528;2023-02-21T14:07:10;3.50;;;1.90;;
12663;SDS011;6396;58.490;15.528;2023-02-21T14:09:38;4.23;;;2.10;;
12663;SDS011;6396;58.490;15.528;2023-02-21T14:12:08;2.97;;;1.63;;
12663;SDS011;6396;58.490;15.528;2023-02-21T14:14:39;2.43;;;1.97;;
12663;SDS011;6396;58.490;15.528;2023-02-21T14:17:08;2.40;;;1.87;;
12663;SDS011;6396;58.490;15.528;2023-02-21T14:19:40;2.90;;;2.00;;
12663;SDS011;6396;58.490;15.528;2023-02-21T14:22:10;2.23;;;1.93;;
12663;SDS011;6396;58.490;15.528;2023-02-21T14:24:41;2.00;;;1.77;;
12663;SDS011;6396;58.490;15.528;2023-02-21T14:33:00;3.33;;;1.97;;
12663;SDS011;6396;58.490;15.528;2023-02-21T14:35:45;1.77;;;1.60;;
12663;SDS011;6396;58.490;15.528;2023-02-21T14:38:15;1.97;;;1.70;;
12663;SDS011;6396;58.490;15.528;2023-02-21T14:40:48;4.10;;;2.00;;
12663;SDS011;6396;58.490;15.528;2023-02-21T14:43:30;1.90;;;1.53;;
12663;SDS011;6396;58.490;15.528;2023-02-21T14:49:44;1.57;;;1.33;;
12663;SDS011;6396;58.490;15.528;2023-02-21T15:03:07;6.10;;;2.17;;
12663;SDS011;6396;58.490;15.528;2023-02-21T15:06:09;3.93;;;2.23;;
12663;SDS011;6396;58.490;15.528;2023-02-21T15:08:46;2.57;;;1.90;;
12663;SDS011;6396;58.490;15.528;2023-02-21T15:11:22;3.40;;;1.80;;
12663;SDS011;6396;58.490;15.528;2023-02-21T15:14:12;2.13;;;1.20;;
12663;SDS011;6396;58.490;15.528;2023-02-21T15:17:01;1.73;;;1.50;;
12663;SDS011;6396;58.490;15.528;2023-02-21T15:20:00;1.73;;;1.40;;
12663;SDS011;6396;58.490;15.528;2023-02-21T15:23:10;2.13;;;1.70;;
12663;SDS011;6396;58.490;15.528;2023-02-21T15:25:39;2.10;;;1.40;;
12663;SDS011;6396;58.490;15.528;2023-02-21T15:28:12;3.87;;;1.50;;
12663;SDS011;6396;58.490;15.528;2023-02-21T15:30:57;1.60;;;1.33;;
12663;SDS011;6396;58.490;15.528;2023-02-21T15:33:29;2.67;;;1.33;;
12663;SDS011;6396;58.490;15.528;2023-02-21T15:35:59;3.00;;;1.80;;
12663;SDS011;6396;58.490;15.528;2023-02-21T15:38:32;3.73;;;1.50;;
12663;SDS011;6396;58.490;15.528;2023-02-21T15:41:12;2.33;;;1.50;;
12663;SDS011;6396;58.490;15.528;2023-02-21T15:43:47;2.13;;;1.77;;
12663;SDS011;6396;58.490;15.528;2023-02-21T15:46:20;1.87;;;1.40;;
12663;SDS011;6396;58.490;15.528;2023-02-21T15:48:52;1.70;;;1.37;;
12663;SDS011;6396;58.490;15.528;2023-02-21T15:51:21;5.30;;;1.60;;
12663;SDS011;6396;58.490;15.528;2023-02-21T15:56:34;2.90;;;1.63;;
12663;SDS011;6396;58.490;15.528;2023-02-21T15:59:01;1.57;;;1.47;;
12663;SDS011;6396;58.490;15.528;2023-02-21T16:01:37;3.00;;;1.43;;
12663;SDS011;6396;58.490;15.528;2023-02-21T16:04:33;2.13;;;1.40;;
12663;SDS011;6396;58.490;15.528;2023-02-21T16:07:02;1.53;;;1.20;;
12663;SDS011;6396;58.490;15.528;2023-02-21T16:09:33;1.97;;;1.30;;
12663;SDS011;6396;58.490;15.528;2023-02-21T16:12:02;1.57;;;1.27;;
12663;SDS011;6396;58.490;15.528;2023-02-21T16:14:35;2.30;;;1.30;;
12663;SDS011;6396;58.490;15.528;2023-02-21T16:17:06;6.53;;;1.50;;
12663;SDS011;6396;58.490;15.528;2023-02-21T16:19:43;2.97;;;1.50;;
12663;SDS011;6396;58.490;15.528;2023-02-21T16:22:12;1.40;;;1.30;;
12663;SDS011;6396;58.490;15.528;2023-02-21T16:24:48;1.63;;;1.50;;
12663;SDS011;6396;58.490;15.528;2023-02-21T16:27:16;3.23;;;1.80;;
12663;SDS011;6396;58.490;15.528;2023-02-21T16:29:50;2.10;;;1.53;;
12663;SDS011;6396;58.490;15.528;2023-02-21T16:32:23;1.57;;;1.40;;
12663;SDS011;6396;58.490;15.528;2023-02-21T16:34:56;1.73;;;1.40;;
12663;SDS011;6396;58.490;15.528;2023-02-21T16:37:25;1.67;;;1.50;;
12663;SDS011;6396;58.490;15.528;2023-02-21T16:39:53;4.53;;;2.20;;
12663;SDS011;6396;58.490;15.528;2023-02-21T16:42:24;4.23;;;2.17;;
12663;SDS011;6396;58.490;15.528;2023-02-21T16:44:54;4.37;;;2.20;;
12663;SDS011;6396;58.490;15.528;2023-02-21T16:47:22;2.43;;;1.93;;
12663;SDS011;6396;58.490;15.528;2023-02-21T16:49:54;3.00;;;1.90;;
12663;SDS011;6396;58.490;15.528;2023-02-21T16:52:28;2.50;;;1.90;;
12663;SDS011;6396;58.490;15.528;2023-02-21T16:54:55;1.77;;;1.57;;
12663;SDS011;6396;58.490;15.528;2023-02-21T16:57:24;1.90;;;1.70;;
12663;SDS011;6396;58.490;15.528;2023-02-21T16:59:51;2.03;;;1.60;;
12663;SDS011;6396;58.490;15.528;2023-02-21T17:02:17;2.07;;;1.63;;
12663;SDS011;6396;58.490;15.528;2023-02-21T17:04:44;3.33;;;2.17;;
12663;SDS011;6396;58.490;15.528;2023-02-21T17:07:12;2.63;;;2.23;;
12663;SDS011;6396;58.490;15.528;2023-02-21T17:09:39;4.33;;;2.10;;
12663;SDS011;6396;58.490;15.528;2023-02-21T17:12:06;1.70;;;1.57;;
12663;SDS011;6396;58.490;15.528;2023-02-21T17:14:33;2.10;;;1.90;;
12663;SDS011;6396;58.490;15.528;2023-02-21T17:17:00;2.60;;;1.60;;
12663;SDS011;6396;58.490;15.528;2023-02-21T17:19:27;3.73;;;1.70;;
12663;SDS011;6396;58.490;15.528;2023-02-21T17:21:54;2.50;;;1.97;;
12663;SDS011;6396;58.490;15.528;2023-02-21T17:24:23;2.20;;;1.73;;
12663;SDS011;6396;58.490;15.528;2023-02-21T17:26:50;2.17;;;1.80;;
12663;SDS011;6396;58.490;15.528;2023-02-21T17:29:18;2.20;;;1.90;;
12663;SDS011;6396;58.490;15.528;2023-02-21T17:31:45;3.93;;;2.10;;
12663;SDS011;6396;58.490;15.528;2023-02-21T17:34:12;6.27;;;1.93;;
12663;SDS011;6396;58.490;15.528;2023-02-21T17:36:38;2.00;;;1.80;;
12663;SDS011;6396;58.490;15.528;2023-02-21T17:39:06;6.53;;;2.13;;
12663;SDS011;6396;58.490;15.528;2023-02-21T17:41:34;2.37;;;1.50;;
12663;SDS011;6396;58.490;15.528;2023-02-21T17:44:01;2.03;;;1.60;;
12663;SDS011;6396;58.490;15.528;2023-02-21T17:46:28;1.67;;;1.57;;
12663;SDS011;6396;58.490;15.528;2023-02-21T17:48:56;1.83;;;1.67;;
12663;SDS011;6396;58.490;15.528;2023-02-21T17:51:23;1.63;;;1.53;;
12663;SDS011;6396;58.490;15.528;2023-02-21T17:53:51;2.03;;;1.43;;
12663;SDS011;6396;58.490;15.528;2023-02-21T17:56:18;2.53;;;1.70;;
12663;SDS011;6396;58.490;15.528;2023-02-21T17:58:49;1.77;;;1.40;;
12663;SDS011;6396;58.490;15.528;2023-02-21T18:01:17;2.23;;;1.40;;